sensor_id;sensor_type;location;lat;lon;timestamp;temperature;humidity
52859;DHT22;38721;53.098;6.596;2023-07-13T00:00:29;15.60;99.90
52859;DHT22;38721;53.098;6.596;2023-07-13T00:02:56;15.60;99.90
52859;DHT22;38721;53.098;6.596;2023-07-13T00:05:22;15.60;99.90
52859;DHT22;38721;53.098;6.596;2023-07-13T00:07:49;15.60;99.90
52859;DHT22;38721;53.098;6.596;2023-07-13T00:10:16;15.70;99.90
52859;DHT22;38721;53.098;6.596;2023-07-13T00:12:43;15.70;99.90
52859;DHT22;38721;53.098;6.596;2023-07-13T00:15:19;15.70;99.90
52859;DHT22;38721;53.098;6.596;2023-07-13T00:17:50;15.70;99.90
52859;DHT22;38721;53.098;6.596;2023-07-13T00:20:16;15.80;99.90
52859;DHT22;38721;53.098;6.596;2023-07-13T00:22:42;15.80;99.90
52859;DHT22;38721;53.098;6.596;2023-07-13T00:25:12;15.80;99.90
52859;DHT22;38721;53.098;6.596;2023-07-13T00:27:37;15.80;99.90
52859;DHT22;38721;53.098;6.596;2023-07-13T00:30:04;15.80;99.90
52859;DHT22;38721;53.098;6.596;2023-07-13T00:32:30;15.90;99.90
52859;DHT22;38721;53.098;6.596;2023-07-13T00:34:58;15.90;99.90
52859;DHT22;38721;53.098;6.596;2023-07-13T00:37:29;15.90;99.90
52859;DHT22;38721;53.098;6.596;2023-07-13T00:39:54;15.90;99.90
52859;DHT22;38721;53.098;6.596;2023-07-13T00:42:20;15.90;99.90
52859;DHT22;38721;53.098;6.596;2023-07-13T00:47:40;15.90;99.90
52859;DHT22;38721;53.098;6.596;2023-07-13T00:50:09;16.00;99.90
52859;DHT22;38721;53.098;6.596;2023-07-13T00:52:38;16.00;99.90
52859;DHT22;38721;53.098;6.596;2023-07-13T00:55:06;16.00;99.90
52859;DHT22;38721;53.098;6.596;2023-07-13T00:57:31;16.00;99.90
52859;DHT22;38721;53.098;6.596;2023-07-13T00:59:59;16.00;99.90
52859;DHT22;38721;53.098;6.596;2023-07-13T01:02:32;16.00;99.90
52859;DHT22;38721;53.098;6.596;2023-07-13T01:04:58;15.90;99.90
52859;DHT22;38721;53.098;6.596;2023-07-13T01:07:25;15.90;99.90
52859;DHT22;38721;53.098;6.596;2023-07-13T01:09:51;15.90;99.90
52859;DHT22;38721;53.098;6.596;2023-07-13T01:12:16;15.90;99.90
52859;DHT22;38721;53.098;6.596;2023-07-13T01:14:42;15.90;99.90
52859;DHT22;38721;53.098;6.596;2023-07-13T01:17:11;15.90;99.90
52859;DHT22;38721;53.098;6.596;2023-07-13T01:19:40;15.90;99.90
52859;DHT22;38721;53.098;6.596;2023-07-13T01:22:10;15.90;99.90
52859;DHT22;38721;53.098;6.596;2023-07-13T01:24:41;15.90;99.90
52859;DHT22;38721;53.098;6.596;2023-07-13T01:27:09;16.00;99.90
52859;DHT22;38721;53.098;6.596;2023-07-13T01:29:37;16.00;99.90
52859;DHT22;38721;53.098;6.596;2023-07-13T01:32:16;16.00;99.90
52859;DHT22;38721;53.098;6.596;2023-07-13T01:34:42;16.00;99.90
52859;DHT22;38721;53.098;6.596;2023-07-13T01:37:11;16.00;99.90
52859;DHT22;38721;53.098;6.596;2023-07-13T01:39:37;16.10;99.90
52859;DHT22;38721;53.098;6.596;2023-07-13T01:42:03;16.10;99.90
52859;DHT22;38721;53.098;6.596;2023-07-13T01:44:29;16.10;99.90
52859;DHT22;38721;53.098;6.596;2023-07-13T01:46:54;16.10;99.90
52859;DHT22;38721;53.098;6.596;2023-07-13T01:49:20;16.10;99.90
52859;DHT22;38721;53.098;6.596;2023-07-13T01:51:46;16.10;99.90
52859;DHT22;38721;53.098;6.596;2023-07-13T01:54:11;16.10;99.90
52859;DHT22;38721;53.098;6.596;2023-07-13T01:56:37;16.10;99.90
52859;DHT22;38721;53.098;6.596;2023-07-13T01:59:03;16.10;99.90
52859;DHT22;38721;53.098;6.596;2023-07-13T02:01:28;16.10;99.90
52859;DHT22;38721;53.098;6.596;2023-07-13T02:03:54;16.10;99.90
52859;DHT22;38721;53.098;6.596;2023-07-13T02:06:20;16.10;99.90
52859;DHT22;38721;53.098;6.596;2023-07-13T02:08:46;16.10;99.90
52859;DHT22;38721;53.098;6.596;2023-07-13T02:11:11;16.10;99.90
52859;DHT22;38721;53.098;6.596;2023-07-13T02:13:37;16.10;99.90
52859;DHT22;38721;53.098;6.596;2023-07-13T02:16:03;16.10;99.90
52859;DHT22;38721;53.098;6.596;2023-07-13T02:18:29;16.10;99.90
52859;DHT22;38721;53.098;6.596;2023-07-13T02:20:55;16.10;99.90
52859;DHT22;38721;53.098;6.596;2023-07-13T02:23:21;16.10;99.90
52859;DHT22;38721;53.098;6.596;2023-07-13T02:25:46;16.00;99.90
52859;DHT22;38721;53.098;6.596;2023-07-13T02:28:12;16.00;99.90
52859;DHT22;38721;53.098;6.596;2023-07-13T02:30:38;15.90;99.90
52859;DHT22;38721;53.098;6.596;2023-07-13T02:33:05;15.90;99.90
52859;DHT22;38721;53.098;6.596;2023-07-13T02:35:31;15.90;99.90
52859;DHT22;38721;53.098;6.596;2023-07-13T02:37:56;15.90;99.90
52859;DHT22;38721;53.098;6.596;2023-07-13T02:40:23;15.90;99.90
52859;DHT22;38721;53.098;6.596;2023-07-13T02:42:49;15.80;99.90
52859;DHT22;38721;53.098;6.596;2023-07-13T02:45:14;15.80;99.90
52859;DHT22;38721;53.098;6.596;2023-07-13T02:47:41;15.80;99.90
52859;DHT22;38721;53.098;6.596;2023-07-13T02:50:07;15.70;99.90
52859;DHT22;38721;53.098;6.596;2023-07-13T02:52:33;15.60;99.90
52859;DHT22;38721;53.098;6.596;2023-07-13T02:54:59;15.50;99.90
52859;DHT22;38721;53.098;6.596;2023-07-13T02:57:26;15.50;99.90
52859;DHT22;38721;53.098;6.596;2023-07-13T02:59:56;15.50;99.90
52859;DHT22;38721;53.098;6.596;2023-07-13T03:02:22;15.50;99.90
52859;DHT22;38721;53.098;6.596;2023-07-13T03:04:51;15.40;99.90
52859;DHT22;38721;53.098;6.596;2023-07-13T03:07:16;15.30;99.90
52859;DHT22;38721;53.098;6.596;2023-07-13T03:09:42;15.40;99.90
52859;DHT22;38721;53.098;6.596;2023-07-13T03:12:08;15.30;99.90
52859;DHT22;38721;53.098;6.596;2023-07-13T03:14:34;15.30;99.90
52859;DHT22;38721;53.098;6.596;2023-07-13T03:16:59;15.30;99.90
52859;DHT22;38721;53.098;6.596;2023-07-13T03:19:25;15.20;99.90
52859;DHT22;38721;53.098;6.596;2023-07-13T03:21:51;15.20;99.90
52859;DHT22;38721;53.098;6.596;2023-07-13T03:24:17;15.10;99.90
52859;DHT22;38721;53.098;6.596;2023-07-13T03:26:42;15.20;99.90
52859;DHT22;38721;53.098;6.596;2023-07-13T03:29:08;15.20;99.90
52859;DHT22;38721;53.098;6.596;2023-07-13T03:31:35;15.20;99.90
52859;DHT22;38721;53.098;6.596;2023-07-13T03:34:02;15.30;99.90
52859;DHT22;38721;53.098;6.596;2023-07-13T03:36:29;15.20;99.90
52859;DHT22;38721;53.098;6.596;2023-07-13T03:38:58;15.40;99.90
52859;DHT22;38721;53.098;6.596;2023-07-13T03:41:25;15.40;99.90
52859;DHT22;38721;53.098;6.596;2023-07-13T03:43:52;15.50;99.90
52859;DHT22;38721;53.098;6.596;2023-07-13T03:46:18;15.50;99.90
52859;DHT22;38721;53.098;6.596;2023-07-13T03:48:45;15.50;99.90
52859;DHT22;38721;53.098;6.596;2023-07-13T03:51:13;15.50;99.90
52859;DHT22;38721;53.098;6.596;2023-07-13T03:53:41;15.60;99.90
52859;DHT22;38721;53.098;6.596;2023-07-13T03:56:08;15.70;99.90
52859;DHT22;38721;53.098;6.596;2023-07-13T03:58:36;15.60;99.90
52859;DHT22;38721;53.098;6.596;2023-07-13T04:01:04;15.60;99.90
52859;DHT22;38721;53.098;6.596;2023-07-13T04:03:32;15.60;99.90
52859;DHT22;38721;53.098;6.596;2023-07-13T04:05:59;15.60;99.90
52859;DHT22;38721;53.098;6.596;2023-07-13T04:08:30;15.60;99.90
52859;DHT22;38721;53.098;6.596;2023-07-13T04:10:56;15.60;99.90
52859;DHT22;38721;53.098;6.596;2023-07-13T04:13:23;15.60;99.90
52859;DHT22;38721;53.098;6.596;2023-07-13T04:15:49;15.60;99.90
52859;DHT22;38721;53.098;6.596;2023-07-13T04:18:15;15.60;99.90
52859;DHT22;38721;53.098;6.596;2023-07-13T04:20:42;15.70;99.90
52859;DHT22;38721;53.098;6.596;2023-07-13T04:23:07;15.80;99.90
52859;DHT22;38721;53.098;6.596;2023-07-13T04:25:33;15.80;99.90
52859;DHT22;38721;53.098;6.596;2023-07-13T04:27:59;15.90;99.90
52859;DHT22;38721;53.098;6.596;2023-07-13T04:30:25;15.90;99.90
52859;DHT22;38721;53.098;6.596;2023-07-13T04:32:52;15.90;99.90
52859;DHT22;38721;53.098;6.596;2023-07-13T04:35:21;15.90;99.90
52859;DHT22;38721;53.098;6.596;2023-07-13T04:37:48;16.00;99.90
52859;DHT22;38721;53.098;6.596;2023-07-13T04:40:18;16.20;99.90
52859;DHT22;38721;53.098;6.596;2023-07-13T04:42:45;16.30;99.90
52859;DHT22;38721;53.098;6.596;2023-07-13T04:45:14;16.40;99.90
52859;DHT22;38721;53.098;6.596;2023-07-13T04:47:40;16.40;99.90
52859;DHT22;38721;53.098;6.596;2023-07-13T04:50:07;16.40;99.90
52859;DHT22;38721;53.098;6.596;2023-07-13T04:52:34;16.30;99.90
52859;DHT22;38721;53.098;6.596;2023-07-13T04:55:00;16.40;99.90
52859;DHT22;38721;53.098;6.596;2023-07-13T04:57:27;16.50;99.90
52859;DHT22;38721;53.098;6.596;2023-07-13T04:59:53;16.60;99.90
52859;DHT22;38721;53.098;6.596;2023-07-13T05:02:20;16.60;99.90
52859;DHT22;38721;53.098;6.596;2023-07-13T05:04:47;16.60;99.90
52859;DHT22;38721;53.098;6.596;2023-07-13T05:07:13;16.60;99.90
52859;DHT22;38721;53.098;6.596;2023-07-13T05:09:39;16.60;99.90
52859;DHT22;38721;53.098;6.596;2023-07-13T05:12:09;16.60;99.90
52859;DHT22;38721;53.098;6.596;2023-07-13T05:14:35;16.70;99.90
52859;DHT22;38721;53.098;6.596;2023-07-13T05:17:01;16.70;99.90
52859;DHT22;38721;53.098;6.596;2023-07-13T05:19:27;16.70;99.90
52859;DHT22;38721;53.098;6.596;2023-07-13T05:21:52;16.80;99.90
52859;DHT22;38721;53.098;6.596;2023-07-13T05:24:18;16.80;99.90
52859;DHT22;38721;53.098;6.596;2023-07-13T05:26:44;16.90;99.90
52859;DHT22;38721;53.098;6.596;2023-07-13T05:29:13;16.90;99.90
52859;DHT22;38721;53.098;6.596;2023-07-13T05:31:39;17.00;99.90
52859;DHT22;38721;53.098;6.596;2023-07-13T05:34:04;17.00;99.90
52859;DHT22;38721;53.098;6.596;2023-07-13T05:36:31;17.00;99.90
52859;DHT22;38721;53.098;6.596;2023-07-13T05:38:56;17.10;99.90
52859;DHT22;38721;53.098;6.596;2023-07-13T05:41:22;17.20;99.90
52859;DHT22;38721;53.098;6.596;2023-07-13T05:43:48;17.20;99.90
52859;DHT22;38721;53.098;6.596;2023-07-13T05:46:13;17.20;99.90
52859;DHT22;38721;53.098;6.596;2023-07-13T05:48:40;17.30;99.90
52859;DHT22;38721;53.098;6.596;2023-07-13T05:51:06;17.30;99.90
52859;DHT22;38721;53.098;6.596;2023-07-13T05:53:31;17.40;99.90
52859;DHT22;38721;53.098;6.596;2023-07-13T05:55:57;17.50;99.90
52859;DHT22;38721;53.098;6.596;2023-07-13T05:58:23;17.50;99.90
52859;DHT22;38721;53.098;6.596;2023-07-13T06:01:02;17.70;99.90
52859;DHT22;38721;53.098;6.596;2023-07-13T06:03:29;17.70;99.90
52859;DHT22;38721;53.098;6.596;2023-07-13T06:05:55;17.80;99.90
52859;DHT22;38721;53.098;6.596;2023-07-13T06:08:21;17.80;99.90
52859;DHT22;38721;53.098;6.596;2023-07-13T06:10:47;17.90;99.90
52859;DHT22;38721;53.098;6.596;2023-07-13T06:13:12;18.10;99.90
52859;DHT22;38721;53.098;6.596;2023-07-13T06:15:38;18.10;99.90
52859;DHT22;38721;53.098;6.596;2023-07-13T06:18:03;18.10;99.90
52859;DHT22;38721;53.098;6.596;2023-07-13T06:20:29;18.10;99.90
52859;DHT22;38721;53.098;6.596;2023-07-13T06:22:55;18.10;99.90
52859;DHT22;38721;53.098;6.596;2023-07-13T06:25:21;18.20;99.90
52859;DHT22;38721;53.098;6.596;2023-07-13T06:27:47;18.40;99.90
52859;DHT22;38721;53.098;6.596;2023-07-13T06:30:12;18.50;99.90
52859;DHT22;38721;53.098;6.596;2023-07-13T06:32:38;18.50;99.90
52859;DHT22;38721;53.098;6.596;2023-07-13T06:35:05;18.60;99.90
52859;DHT22;38721;53.098;6.596;2023-07-13T06:37:31;18.60;99.90
52859;DHT22;38721;53.098;6.596;2023-07-13T06:39:56;18.80;99.90
52859;DHT22;38721;53.098;6.596;2023-07-13T06:42:22;19.00;99.90
52859;DHT22;38721;53.098;6.596;2023-07-13T06:44:48;19.10;99.90
52859;DHT22;38721;53.098;6.596;2023-07-13T06:47:13;19.30;99.90
52859;DHT22;38721;53.098;6.596;2023-07-13T06:49:39;19.30;99.90
52859;DHT22;38721;53.098;6.596;2023-07-13T06:52:05;19.30;99.90
52859;DHT22;38721;53.098;6.596;2023-07-13T06:54:34;19.20;99.90
52859;DHT22;38721;53.098;6.596;2023-07-13T06:57:00;19.20;99.90
52859;DHT22;38721;53.098;6.596;2023-07-13T06:59:26;19.40;99.90
52859;DHT22;38721;53.098;6.596;2023-07-13T07:01:55;19.70;99.90
52859;DHT22;38721;53.098;6.596;2023-07-13T07:04:21;20.10;99.90
52859;DHT22;38721;53.098;6.596;2023-07-13T07:06:47;20.20;99.90
52859;DHT22;38721;53.098;6.596;2023-07-13T07:09:13;20.30;99.90
52859;DHT22;38721;53.098;6.596;2023-07-13T07:11:39;20.40;99.90
52859;DHT22;38721;53.098;6.596;2023-07-13T07:14:05;20.10;99.90
52859;DHT22;38721;53.098;6.596;2023-07-13T07:16:30;19.90;99.90
52859;DHT22;38721;53.098;6.596;2023-07-13T07:18:56;19.50;99.90
52859;DHT22;38721;53.098;6.596;2023-07-13T07:21:22;19.30;99.90
52859;DHT22;38721;53.098;6.596;2023-07-13T07:23:54;19.30;99.90
52859;DHT22;38721;53.098;6.596;2023-07-13T07:26:20;19.30;99.90
52859;DHT22;38721;53.098;6.596;2023-07-13T07:28:46;19.30;99.90
52859;DHT22;38721;53.098;6.596;2023-07-13T07:31:11;19.60;99.90
52859;DHT22;38721;53.098;6.596;2023-07-13T07:33:37;20.00;99.90
52859;DHT22;38721;53.098;6.596;2023-07-13T07:36:03;20.00;99.90
52859;DHT22;38721;53.098;6.596;2023-07-13T07:38:29;20.00;99.90
52859;DHT22;38721;53.098;6.596;2023-07-13T07:40:54;19.90;99.90
52859;DHT22;38721;53.098;6.596;2023-07-13T07:43:20;20.10;99.90
52859;DHT22;38721;53.098;6.596;2023-07-13T07:45:46;20.50;99.90
52859;DHT22;38721;53.098;6.596;2023-07-13T07:48:11;20.30;99.90
52859;DHT22;38721;53.098;6.596;2023-07-13T07:50:38;20.40;99.90
52859;DHT22;38721;53.098;6.596;2023-07-13T07:53:05;20.30;99.90
52859;DHT22;38721;53.098;6.596;2023-07-13T07:55:34;20.40;99.90
52859;DHT22;38721;53.098;6.596;2023-07-13T07:58:02;20.50;99.90
52859;DHT22;38721;53.098;6.596;2023-07-13T08:00:28;20.40;99.90
52859;DHT22;38721;53.098;6.596;2023-07-13T08:02:57;20.80;99.90
52859;DHT22;38721;53.098;6.596;2023-07-13T08:05:23;20.80;99.90
52859;DHT22;38721;53.098;6.596;2023-07-13T08:07:49;20.90;99.90
52859;DHT22;38721;53.098;6.596;2023-07-13T08:10:17;20.80;99.90
52859;DHT22;38721;53.098;6.596;2023-07-13T08:12:43;20.70;99.90
52859;DHT22;38721;53.098;6.596;2023-07-13T08:15:12;20.40;99.90
52859;DHT22;38721;53.098;6.596;2023-07-13T08:17:38;20.40;99.90
52859;DHT22;38721;53.098;6.596;2023-07-13T08:20:04;20.70;99.90
52859;DHT22;38721;53.098;6.596;2023-07-13T08:22:33;20.80;99.90
52859;DHT22;38721;53.098;6.596;2023-07-13T08:24:59;20.90;99.90
52859;DHT22;38721;53.098;6.596;2023-07-13T08:27:26;20.70;99.90
52859;DHT22;38721;53.098;6.596;2023-07-13T08:29:53;20.70;99.90
52859;DHT22;38721;53.098;6.596;2023-07-13T08:32:20;20.80;99.90
52859;DHT22;38721;53.098;6.596;2023-07-13T08:34:46;20.60;99.90
52859;DHT22;38721;53.098;6.596;2023-07-13T08:37:13;20.70;99.90
52859;DHT22;38721;53.098;6.596;2023-07-13T08:39:39;20.70;99.90
52859;DHT22;38721;53.098;6.596;2023-07-13T08:45:07;21.30;99.90
52859;DHT22;38721;53.098;6.596;2023-07-13T08:47:46;21.60;99.90
52859;DHT22;38721;53.098;6.596;2023-07-13T08:50:16;21.50;99.90
52859;DHT22;38721;53.098;6.596;2023-07-13T08:52:44;21.20;99.90
52859;DHT22;38721;53.098;6.596;2023-07-13T08:55:18;20.80;99.90
52859;DHT22;38721;53.098;6.596;2023-07-13T08:57:49;20.40;99.90
52859;DHT22;38721;53.098;6.596;2023-07-13T09:00:15;20.30;99.90
52859;DHT22;38721;53.098;6.596;2023-07-13T09:02:56;20.70;99.90
52859;DHT22;38721;53.098;6.596;2023-07-13T09:05:36;21.20;99.90
52859;DHT22;38721;53.098;6.596;2023-07-13T09:16:41;20.70;99.90
52859;DHT22;38721;53.098;6.596;2023-07-13T09:19:11;20.70;99.90
52859;DHT22;38721;53.098;6.596;2023-07-13T09:21:41;20.60;99.90
52859;DHT22;38721;53.098;6.596;2023-07-13T09:24:50;21.20;99.90
52859;DHT22;38721;53.098;6.596;2023-07-13T09:27:21;21.10;99.90
52859;DHT22;38721;53.098;6.596;2023-07-13T09:30:20;21.50;99.90
52859;DHT22;38721;53.098;6.596;2023-07-13T09:32:52;21.50;99.90
52859;DHT22;38721;53.098;6.596;2023-07-13T09:35:25;21.60;99.90
52859;DHT22;38721;53.098;6.596;2023-07-13T09:37:58;21.40;99.90
52859;DHT22;38721;53.098;6.596;2023-07-13T09:40:30;21.70;99.90
52859;DHT22;38721;53.098;6.596;2023-07-13T09:43:01;21.60;99.90
52859;DHT22;38721;53.098;6.596;2023-07-13T09:45:30;21.50;99.90
52859;DHT22;38721;53.098;6.596;2023-07-13T09:48:10;21.10;99.90
52859;DHT22;38721;53.098;6.596;2023-07-13T09:50:36;20.60;99.90
52859;DHT22;38721;53.098;6.596;2023-07-13T09:53:03;20.00;99.90
52859;DHT22;38721;53.098;6.596;2023-07-13T09:55:36;19.80;99.90
52859;DHT22;38721;53.098;6.596;2023-07-13T09:58:14;19.40;99.90
52859;DHT22;38721;53.098;6.596;2023-07-13T10:00:42;19.20;99.90
52859;DHT22;38721;53.098;6.596;2023-07-13T10:03:25;19.10;99.90
52859;DHT22;38721;53.098;6.596;2023-07-13T10:05:52;19.00;99.90
52859;DHT22;38721;53.098;6.596;2023-07-13T10:08:28;18.90;99.90
52859;DHT22;38721;53.098;6.596;2023-07-13T10:11:01;19.00;99.90
52859;DHT22;38721;53.098;6.596;2023-07-13T10:13:35;18.90;99.90
52859;DHT22;38721;53.098;6.596;2023-07-13T10:16:04;19.00;99.90
52859;DHT22;38721;53.098;6.596;2023-07-13T10:18:49;19.00;99.90
52859;DHT22;38721;53.098;6.596;2023-07-13T10:21:22;19.10;99.90
52859;DHT22;38721;53.098;6.596;2023-07-13T10:23:53;19.20;99.90
52859;DHT22;38721;53.098;6.596;2023-07-13T10:26:26;19.50;99.90
52859;DHT22;38721;53.098;6.596;2023-07-13T10:29:01;20.00;99.90
52859;DHT22;38721;53.098;6.596;2023-07-13T10:31:30;20.40;99.90
52859;DHT22;38721;53.098;6.596;2023-07-13T10:33:57;20.40;99.90
52859;DHT22;38721;53.098;6.596;2023-07-13T10:36:34;20.60;99.90
52859;DHT22;38721;53.098;6.596;2023-07-13T10:39:04;21.20;99.90
52859;DHT22;38721;53.098;6.596;2023-07-13T10:41:35;21.50;99.90
52859;DHT22;38721;53.098;6.596;2023-07-13T10:44:02;21.60;99.90
52859;DHT22;38721;53.098;6.596;2023-07-13T10:46:29;21.50;99.90
52859;DHT22;38721;53.098;6.596;2023-07-13T10:49:02;21.90;99.90
52859;DHT22;38721;53.098;6.596;2023-07-13T10:51:30;22.40;99.90
52859;DHT22;38721;53.098;6.596;2023-07-13T10:54:16;22.70;99.90
52859;DHT22;38721;53.098;6.596;2023-07-13T10:56:42;22.50;99.90
52859;DHT22;38721;53.098;6.596;2023-07-13T11:02:28;22.50;99.90
52859;DHT22;38721;53.098;6.596;2023-07-13T11:04:46;21.50;99.90
52859;DHT22;38721;53.098;6.596;2023-07-13T11:07:22;21.20;99.90
52859;DHT22;38721;53.098;6.596;2023-07-13T11:09:57;20.70;99.90
52859;DHT22;38721;53.098;6.596;2023-07-13T11:20:21;21.90;99.90
52859;DHT22;38721;53.098;6.596;2023-07-13T11:22:51;22.10;99.90
52859;DHT22;38721;53.098;6.596;2023-07-13T11:28:04;21.70;99.90
52859;DHT22;38721;53.098;6.596;2023-07-13T11:30:32;21.80;99.90
52859;DHT22;38721;53.098;6.596;2023-07-13T11:33:19;21.60;99.90
52859;DHT22;38721;53.098;6.596;2023-07-13T11:36:02;21.40;99.90
52859;DHT22;38721;53.098;6.596;2023-07-13T11:38:40;22.00;99.90
52859;DHT22;38721;53.098;6.596;2023-07-13T11:41:15;21.70;99.90
52859;DHT22;38721;53.098;6.596;2023-07-13T11:43:41;21.20;99.90
52859;DHT22;38721;53.098;6.596;2023-07-13T11:46:34;21.40;99.90
52859;DHT22;38721;53.098;6.596;2023-07-13T11:48:59;21.40;99.90
52859;DHT22;38721;53.098;6.596;2023-07-13T11:51:28;21.90;99.90
52859;DHT22;38721;53.098;6.596;2023-07-13T11:53:55;21.60;40.00
52859;DHT22;38721;53.098;6.596;2023-07-13T11:56:23;21.20;1.00
52859;DHT22;38721;53.098;6.596;2023-07-13T11:58:54;20.90;99.90
52859;DHT22;38721;53.098;6.596;2023-07-13T12:01:23;20.70;99.90
52859;DHT22;38721;53.098;6.596;2023-07-13T12:03:50;21.30;99.90
52859;DHT22;38721;53.098;6.596;2023-07-13T12:06:35;22.20;99.90
52859;DHT22;38721;53.098;6.596;2023-07-13T12:09:11;22.80;99.90
52859;DHT22;38721;53.098;6.596;2023-07-13T12:11:42;23.10;99.90
52859;DHT22;38721;53.098;6.596;2023-07-13T12:14:16;22.80;1.00
52859;DHT22;38721;53.098;6.596;2023-07-13T12:16:43;22.90;99.90
52859;DHT22;38721;53.098;6.596;2023-07-13T12:19:28;22.70;99.90
52859;DHT22;38721;53.098;6.596;2023-07-13T12:21:58;22.70;99.90
52859;DHT22;38721;53.098;6.596;2023-07-13T12:24:26;22.60;99.90
52859;DHT22;38721;53.098;6.596;2023-07-13T12:26:54;23.30;99.90
52859;DHT22;38721;53.098;6.596;2023-07-13T12:29:20;22.70;99.90
52859;DHT22;38721;53.098;6.596;2023-07-13T12:31:48;21.70;99.90
52859;DHT22;38721;53.098;6.596;2023-07-13T12:34:23;21.80;99.90
52859;DHT22;38721;53.098;6.596;2023-07-13T12:37:01;21.40;99.90
52859;DHT22;38721;53.098;6.596;2023-07-13T12:39:37;21.50;6.70
52859;DHT22;38721;53.098;6.596;2023-07-13T12:42:31;22.50;99.90
52859;DHT22;38721;53.098;6.596;2023-07-13T12:45:01;22.30;99.90
52859;DHT22;38721;53.098;6.596;2023-07-13T12:47:28;22.40;99.90
52859;DHT22;38721;53.098;6.596;2023-07-13T12:49:56;22.70;99.90
52859;DHT22;38721;53.098;6.596;2023-07-13T12:52:27;22.20;99.90
52859;DHT22;38721;53.098;6.596;2023-07-13T12:54:58;23.20;99.90
52859;DHT22;38721;53.098;6.596;2023-07-13T12:57:26;23.30;97.00
52859;DHT22;38721;53.098;6.596;2023-07-13T12:59:55;23.00;99.90
52859;DHT22;38721;53.098;6.596;2023-07-13T13:02:30;22.90;1.00
52859;DHT22;38721;53.098;6.596;2023-07-13T13:04:58;23.20;99.90
52859;DHT22;38721;53.098;6.596;2023-07-13T13:07:25;23.00;99.90
52859;DHT22;38721;53.098;6.596;2023-07-13T13:09:51;22.20;99.90
52859;DHT22;38721;53.098;6.596;2023-07-13T13:12:19;21.90;99.90
52859;DHT22;38721;53.098;6.596;2023-07-13T13:14:44;21.70;99.90
52859;DHT22;38721;53.098;6.596;2023-07-13T13:17:23;21.60;99.90
52859;DHT22;38721;53.098;6.596;2023-07-13T13:19:51;21.50;19.40
52859;DHT22;38721;53.098;6.596;2023-07-13T13:22:20;21.70;1.00
52859;DHT22;38721;53.098;6.596;2023-07-13T13:24:46;22.20;1.00
52859;DHT22;38721;53.098;6.596;2023-07-13T13:27:21;23.00;1.00
52859;DHT22;38721;53.098;6.596;2023-07-13T13:29:49;22.50;1.00
52859;DHT22;38721;53.098;6.596;2023-07-13T13:32:17;21.70;65.80
52859;DHT22;38721;53.098;6.596;2023-07-13T13:34:44;21.70;1.00
52859;DHT22;38721;53.098;6.596;2023-07-13T13:37:20;21.80;99.90
52859;DHT22;38721;53.098;6.596;2023-07-13T13:39:47;22.40;99.90
52859;DHT22;38721;53.098;6.596;2023-07-13T13:42:13;22.60;1.00
52859;DHT22;38721;53.098;6.596;2023-07-13T13:44:42;21.70;1.00
52859;DHT22;38721;53.098;6.596;2023-07-13T13:49:45;22.50;1.00
52859;DHT22;38721;53.098;6.596;2023-07-13T13:52:12;22.20;99.90
52859;DHT22;38721;53.098;6.596;2023-07-13T13:54:38;21.90;99.90
52859;DHT22;38721;53.098;6.596;2023-07-13T13:57:04;22.40;99.90
52859;DHT22;38721;53.098;6.596;2023-07-13T13:59:30;22.20;41.60
52859;DHT22;38721;53.098;6.596;2023-07-13T14:01:58;22.90;99.90
52859;DHT22;38721;53.098;6.596;2023-07-13T14:04:26;23.20;1.00
52859;DHT22;38721;53.098;6.596;2023-07-13T14:06:51;23.40;84.50
52859;DHT22;38721;53.098;6.596;2023-07-13T14:09:19;23.10;99.90
52859;DHT22;38721;53.098;6.596;2023-07-13T14:11:46;23.20;99.90
52859;DHT22;38721;53.098;6.596;2023-07-13T14:14:21;22.10;1.00
52859;DHT22;38721;53.098;6.596;2023-07-13T14:16:49;22.20;1.00
52859;DHT22;38721;53.098;6.596;2023-07-13T14:19:22;22.60;99.90
52859;DHT22;38721;53.098;6.596;2023-07-13T14:21:48;22.90;1.00
52859;DHT22;38721;53.098;6.596;2023-07-13T14:24:15;23.10;25.70
52859;DHT22;38721;53.098;6.596;2023-07-13T14:26:41;22.40;1.00
52859;DHT22;38721;53.098;6.596;2023-07-13T14:29:16;21.90;1.00
52859;DHT22;38721;53.098;6.596;2023-07-13T14:31:43;22.10;99.90
52859;DHT22;38721;53.098;6.596;2023-07-13T14:34:13;22.10;99.90
52859;DHT22;38721;53.098;6.596;2023-07-13T14:36:45;22.50;1.00
52859;DHT22;38721;53.098;6.596;2023-07-13T14:39:13;21.80;99.90
52859;DHT22;38721;53.098;6.596;2023-07-13T14:41:40;21.90;99.90
52859;DHT22;38721;53.098;6.596;2023-07-13T14:44:15;21.60;99.90
52859;DHT22;38721;53.098;6.596;2023-07-13T14:46:42;21.60;27.90
52859;DHT22;38721;53.098;6.596;2023-07-13T14:52:00;23.10;99.90
52859;DHT22;38721;53.098;6.596;2023-07-13T14:54:26;22.90;1.70
52859;DHT22;38721;53.098;6.596;2023-07-13T14:56:52;23.10;99.90
52859;DHT22;38721;53.098;6.596;2023-07-13T14:59:19;23.70;99.90
52859;DHT22;38721;53.098;6.596;2023-07-13T15:01:46;23.80;1.00
52859;DHT22;38721;53.098;6.596;2023-07-13T15:04:12;23.80;1.00
52859;DHT22;38721;53.098;6.596;2023-07-13T15:06:59;23.20;1.00
52859;DHT22;38721;53.098;6.596;2023-07-13T15:09:26;23.60;1.00
52859;DHT22;38721;53.098;6.596;2023-07-13T15:11:55;23.90;99.90
52859;DHT22;38721;53.098;6.596;2023-07-13T15:14:22;23.70;49.40
52859;DHT22;38721;53.098;6.596;2023-07-13T15:16:50;23.90;99.90
52859;DHT22;38721;53.098;6.596;2023-07-13T15:19:18;24.30;1.00
52859;DHT22;38721;53.098;6.596;2023-07-13T15:21:49;23.80;99.90
52859;DHT22;38721;53.098;6.596;2023-07-13T15:24:15;23.70;99.90
52859;DHT22;38721;53.098;6.596;2023-07-13T15:26:42;23.40;99.90
52859;DHT22;38721;53.098;6.596;2023-07-13T15:29:17;22.80;99.90
52859;DHT22;38721;53.098;6.596;2023-07-13T15:31:43;22.80;1.00
52859;DHT22;38721;53.098;6.596;2023-07-13T15:34:14;23.30;99.90
52859;DHT22;38721;53.098;6.596;2023-07-13T15:36:41;23.80;99.90
52859;DHT22;38721;53.098;6.596;2023-07-13T15:39:15;23.50;99.90
52859;DHT22;38721;53.098;6.596;2023-07-13T15:41:47;23.80;99.90
52859;DHT22;38721;53.098;6.596;2023-07-13T15:44:39;24.30;99.90
52859;DHT22;38721;53.098;6.596;2023-07-13T15:47:05;23.30;99.90
52859;DHT22;38721;53.098;6.596;2023-07-13T15:49:32;24.10;99.90
52859;DHT22;38721;53.098;6.596;2023-07-13T15:51:58;24.50;99.90
52859;DHT22;38721;53.098;6.596;2023-07-13T15:54:24;24.50;99.90
52859;DHT22;38721;53.098;6.596;2023-07-13T15:56:54;24.40;99.90
52859;DHT22;38721;53.098;6.596;2023-07-13T15:59:21;24.20;99.90
52859;DHT22;38721;53.098;6.596;2023-07-13T16:01:49;24.10;99.90
52859;DHT22;38721;53.098;6.596;2023-07-13T16:04:15;25.60;99.90
52859;DHT22;38721;53.098;6.596;2023-07-13T16:06:41;26.30;99.90
52859;DHT22;38721;53.098;6.596;2023-07-13T16:09:13;25.80;1.00
52859;DHT22;38721;53.098;6.596;2023-07-13T16:11:42;26.90;44.70
52859;DHT22;38721;53.098;6.596;2023-07-13T16:14:13;28.10;99.90